Weather reports worldwide

Advertisment
Formigueres, France (7737): temperature & dewpoint: 16.03.2019 18:00:00 - 22.03.2019 18:00:00 (CET)Formigueres, France (7737): wind speed & gusts: 16.03.2019 18:00:00 - 22.03.2019 18:00:00 (CET)Formigueres, France (7737): wind direction: 16.03.2019 18:00:00 - 22.03.2019 18:00:00 (CET)Formigueres, France (7737): precipitation: 16.03.2019 18:00:00 - 22.03.2019 18:00:00 (CET)
Date & Time tt [°C] td [°C] ff [km/h] ff [kn] fx [km/h] fx [kn] dd rr [mm]
22.03.2019 18:00:00 - - - - - - - -
22.03.2019 17:00:00 12,8 -0,8 11 6 29 16 N 0,0
22.03.2019 16:00:00 13,5 -1,7 11 6 29 16 N 0,0
22.03.2019 15:00:00 13,9 -1,7 13 7 35 19 E 0,0
22.03.2019 14:00:00 13,1 -1,7 24 13 37 20 ESE 0,0
22.03.2019 13:00:00 13,1 -2,8 18 10 31 17 ESE -
22.03.2019 12:00:00 12,6 -2,9 15 8 29 16 ESE 0,0
22.03.2019 11:00:00 11,4 -3,2 15 8 24 13 ESE 0,0
22.03.2019 10:00:00 10,2 -3,2 9 5 24 13 SSE 0,0
22.03.2019 09:00:00 7,1 -3,2 5 3 16 9 SSW 0,0
22.03.2019 08:00:00 1,3 -4,6 13 7 24 13 WSW 0,0
22.03.2019 07:00:00 -0,8 -5,4 21 11 26 14 W -
22.03.2019 06:00:00 -0,6 -5,6 18 10 28 15 WSW 0,0
22.03.2019 05:00:00 -0,9 -6,1 13 7 26 14 WSW 0,0
22.03.2019 04:00:00 -0,7 -6,3 18 10 24 13 WSW 0,0
22.03.2019 03:00:00 -0,7 -6,9 16 9 22 12 W 0,0
22.03.2019 02:00:00 -1,0 -7,4 11 6 22 12 WSW 0,0
22.03.2019 01:00:00 -1,6 -7,7 11 6 18 10 WSW -
22.03.2019 00:00:00 -2,7 -8,2 8 4 16 9 WSW 0,0
21.03.2019 23:00:00 -1,2 -6,2 9 5 18 10 WSW 0,0
21.03.2019 22:00:00 -1,4 -5,6 11 6 18 10 WSW 0,0
21.03.2019 21:00:00 -0,7 -5,7 11 6 22 12 W 0,0
21.03.2019 20:00:00 0,5 -5,5 15 8 18 10 W 0,0
21.03.2019 19:00:00 3,1 -4,8 8 4 24 13 NE -
21.03.2019 18:00:00 6,6 -3,9 13 7 31 17 N 0,0
21.03.2019 17:00:00 7,6 -4,2 21 11 35 19 N 0,0
21.03.2019 16:00:00 8,8 -4,8 16 9 35 19 N 0,0
21.03.2019 15:00:00 9,6 -5,5 15 8 37 20 NNE 0,0
21.03.2019 14:00:00 9,4 -6,9 16 9 31 17 NNE 0,0
21.03.2019 13:00:00 8,4 -10,5 11 6 29 16 E -
21.03.2019 12:00:00 7,8 -10,1 9 5 29 16 ESE 0,0
21.03.2019 11:00:00 6,0 -7,6 8 4 21 11 NE 0,0
21.03.2019 10:00:00 3,2 -5,5 8 4 15 8 NE 0,0
21.03.2019 09:00:00 0,2 -4,8 4 2 9 5 NE 0,0
21.03.2019 08:00:00 -3,8 -7,2 2 1 18 10 SSW 0,0
21.03.2019 07:00:00 -6,1 -10,2 11 6 16 9 WSW -
21.03.2019 06:00:00 -6,4 -10,1 5 3 18 10 WSW 0,0
21.03.2019 05:00:00 -5,5 -9,9 9 5 18 10 WSW 0,0
21.03.2019 04:00:00 -4,8 -8,7 11 6 16 9 WSW 0,0
21.03.2019 03:00:00 -4,5 -8,4 5 3 18 10 W 0,0
21.03.2019 02:00:00 -4,6 -8,0 9 5 15 8 WSW 0,0
21.03.2019 01:00:00 -4,0 -8,1 4 2 5 3 NW -
21.03.2019 00:00:00 -3,6 -7,6 4 2 15 8 WSW 0,0
20.03.2019 23:00:00 -1,3 -7,4 11 6 21 11 N 0,0
20.03.2019 22:00:00 -1,3 -7,0 11 6 22 12 N 0,0
20.03.2019 21:00:00 -1,1 -6,1 13 7 24 13 N 0,0
20.03.2019 20:00:00 -1,2 -5,8 13 7 26 14 NNW 0,0
20.03.2019 19:00:00 -0,6 -5,6 15 8 41 22 N -
20.03.2019 18:00:00 2,3 -4,9 24 13 50 27 NNE 0,0
20.03.2019 17:00:00 3,8 -4,4 26 14 48 26 NNE 0,0
20.03.2019 16:00:00 4,4 -4,4 24 13 48 26 NNE 0,0
20.03.2019 15:00:00 4,4 -3,9 28 15 52 28 NNE 0,0
20.03.2019 14:00:00 3,9 -4,1 22 12 44 24 NE 0,0
20.03.2019 13:00:00 2,7 -4,5 24 13 50 27 NE -
20.03.2019 12:00:00 2,5 -3,6 26 14 54 29 NNE 0,0
20.03.2019 11:00:00 1,2 -5,3 26 14 48 26 NNE 0,0
20.03.2019 10:00:00 0,7 -5,8 21 11 39 21 NNE 0,0
20.03.2019 09:00:00 -0,6 -6,4 16 9 34 18 N 0,0
20.03.2019 08:00:00 -1,9 -6,8 18 10 42 23 N 0,0
20.03.2019 07:00:00 -2,7 -7,1 28 15 50 27 N -
20.03.2019 06:00:00 -2,7 -6,7 28 15 48 26 NNE 0,0
20.03.2019 05:00:00 -2,5 -6,0 24 13 54 29 N 0,0
20.03.2019 04:00:00 -2,1 -4,6 29 16 50 27 NNE 0,0
20.03.2019 03:00:00 -2,0 -3,7 26 14 44 24 NNE 0,0
20.03.2019 02:00:00 -1,9 -3,9 22 12 41 22 NNE 0,0
20.03.2019 01:00:00 -1,9 -4,1 16 9 34 18 N -
20.03.2019 00:00:00 -2,0 -4,0 16 9 28 15 NNE 0,0
19.03.2019 23:00:00 -2,1 -4,3 16 9 26 14 NNE 0,0
19.03.2019 22:00:00 -2,2 -4,1 16 9 31 17 NNE 0,0
19.03.2019 21:00:00 -2,2 -3,8 18 10 35 19 NNE 0,0
19.03.2019 20:00:00 -2,1 -3,2 21 11 41 22 NNE 0,0
19.03.2019 19:00:00 -1,9 -2,9 24 13 41 22 NNE -
19.03.2019 18:00:00 -1,6 -3,0 24 13 54 29 NNE 0,0
19.03.2019 17:00:00 -1,6 -2,7 26 14 65 35 NNE 0,6
19.03.2019 16:00:00 -1,4 -2,5 29 16 50 27 NNE 0,6
19.03.2019 15:00:00 -0,1 -1,8 24 13 46 25 NNE 0,0
19.03.2019 14:00:00 1,2 -1,5 22 12 50 27 NNE 0,0
19.03.2019 13:00:00 -0,1 -2,5 22 12 48 26 NNE -
19.03.2019 12:00:00 -0,8 -2,5 28 15 50 27 NNE 0,2
19.03.2019 11:00:00 -0,7 -2,6 22 12 41 22 NNE 0,2
19.03.2019 10:00:00 -1,3 -2,6 24 13 42 23 NNE 0,0
19.03.2019 09:00:00 -1,9 -3,2 26 14 41 22 NNE 0,0
19.03.2019 08:00:00 -2,4 -3,7 24 13 42 23 NNE 0,0
19.03.2019 07:00:00 -2,6 -4,3 22 12 44 24 N -
19.03.2019 06:00:00 -2,8 -5,0 5 3 34 18 NW 0,0
19.03.2019 05:00:00 -2,7 -4,6 21 11 34 18 NNE 0,0
19.03.2019 04:00:00 -2,6 -4,3 15 8 35 19 NNE 0,0
19.03.2019 03:00:00 -2,7 -3,7 8 4 29 16 NNE 0,0
19.03.2019 02:00:00 -2,1 -3,8 16 9 34 18 NE 0,2
19.03.2019 01:00:00 -2,1 -2,9 15 8 46 25 NNE -
19.03.2019 00:00:00 -1,8 -3,2 16 9 34 18 NNE 0,2
18.03.2019 23:00:00 -1,3 -4,6 13 7 28 15 NNE 0,0
18.03.2019 22:00:00 -0,2 -7,3 11 6 35 19 NW 0,0
18.03.2019 21:00:00 0,0 -7,7 11 6 44 24 NNW 0,0
18.03.2019 20:00:00 -0,3 -8,3 11 6 31 17 NNW 0,0
18.03.2019 19:00:00 0,3 -8,4 16 9 39 21 N -
18.03.2019 18:00:00 2,1 -9,2 18 10 46 25 WNW 0,0
18.03.2019 17:00:00 3,2 -9,5 21 11 50 27 WNW 0,0
18.03.2019 16:00:00 3,2 -9,5 24 13 52 28 W 0,0
18.03.2019 15:00:00 2,8 -10,5 28 15 57 31 W 0,0
18.03.2019 14:00:00 2,9 -9,4 22 12 57 31 W 0,0
18.03.2019 13:00:00 3,3 -9,0 16 9 52 28 NNW -
18.03.2019 12:00:00 2,1 -8,6 21 11 52 28 N 0,0
18.03.2019 11:00:00 1,7 -8,2 8 4 48 26 WNW 0,0
18.03.2019 10:00:00 -1,1 -8,1 13 7 48 26 N 0,0
18.03.2019 09:00:00 -1,0 -7,6 13 7 48 26 NW 0,0
18.03.2019 08:00:00 -1,6 -7,1 18 10 44 24 NNW 0,0
18.03.2019 07:00:00 -2,2 -7,5 13 7 41 22 NNW -
18.03.2019 06:00:00 -1,9 -8,4 18 10 44 24 NNW 0,0
18.03.2019 05:00:00 -2,1 -10,4 21 11 52 28 NNW 0,0
18.03.2019 04:00:00 -1,6 -12,0 26 14 65 35 NNW 0,0
18.03.2019 03:00:00 -1,8 -11,1 29 16 63 34 N 0,0
18.03.2019 02:00:00 -1,9 -9,5 21 11 63 34 N 0,0
18.03.2019 01:00:00 -1,2 -7,8 26 14 50 27 N -
18.03.2019 00:00:00 -1,1 -6,7 16 9 50 27 N 0,0
17.03.2019 23:00:00 -0,1 -5,3 26 14 67 36 WNW 0,0
17.03.2019 22:00:00 -0,4 -3,9 28 15 55 30 N 0,0
17.03.2019 21:00:00 -0,1 -2,5 35 19 68 37 N 0,0
17.03.2019 20:00:00 0,5 -1,7 35 19 65 35 N 0,0
17.03.2019 19:00:00 0,5 -1,0 31 17 63 34 N -
17.03.2019 18:00:00 2,3 0,2 34 18 52 28 NNE 0,0
17.03.2019 17:00:00 4,7 0,3 31 17 65 35 N 0,0
17.03.2019 16:00:00 8,1 -0,4 28 15 80 43 N 0,0
17.03.2019 15:00:00 5,6 0,2 35 19 61 33 NNE 0,0
17.03.2019 14:00:00 6,9 1,2 35 19 61 33 NNE 0,0
17.03.2019 13:00:00 5,4 1,3 29 16 48 26 NNE -
17.03.2019 12:00:00 5,1 1,9 24 13 44 24 NNE 0,0
17.03.2019 11:00:00 5,2 0,9 26 14 44 24 NNE 0,0
17.03.2019 10:00:00 4,7 -0,1 24 13 42 23 NNE 0,0
17.03.2019 09:00:00 5,3 -3,5 8 4 16 9 NE 0,0
17.03.2019 08:00:00 2,9 -4,8 4 2 24 13 NNW 0,0
17.03.2019 07:00:00 2,4 -5,5 8 4 22 12 ESE -
17.03.2019 06:00:00 2,7 -5,0 15 8 22 12 WSW 0,0
17.03.2019 05:00:00 3,1 -5,6 11 6 24 13 WSW 0,0
17.03.2019 04:00:00 3,4 -5,8 11 6 22 12 WSW 0,0
17.03.2019 03:00:00 4,8 -6,7 9 5 31 17 W 0,0
17.03.2019 02:00:00 7,3 -7,2 16 9 28 15 SSW 0,0
17.03.2019 01:00:00 6,7 -8,1 13 7 26 14 SSW -
17.03.2019 00:00:00 7,5 -8,6 13 7 28 15 SSW 0,0
16.03.2019 23:00:00 8,6 -8,5 13 7 29 16 SW 0,0
16.03.2019 22:00:00 7,4 -8,7 4 2 28 15 N 0,0
16.03.2019 21:00:00 5,7 -5,9 5 3 22 12 WSW 0,0
16.03.2019 20:00:00 6,8 -4,3 16 9 26 14 WSW 0,0
16.03.2019 19:00:00 9,4 -3,5 16 9 22 12 WSW -
16.03.2019 18:00:00 15,6 -4,4 4 2 21 11 ENE 0,0

tt = temperature
td = dewpoint
ff = wind speed
fx = gusts
dd = wind direction
rr = precipitation

Next stations